createdAt,value
2019-03-04T00:02:02.000Z,6.35
2019-03-04T00:04:29.284Z,6.37
2019-03-04T00:06:56.678Z,10.72
2019-03-04T00:09:24.049Z,6.45
2019-03-04T00:11:51.332Z,7.15
2019-03-04T00:14:18.618Z,8.35
2019-03-04T00:16:45.889Z,6.50
2019-03-04T00:19:13.174Z,6.28
2019-03-04T00:21:40.822Z,7.35
2019-03-04T00:24:08.112Z,7.25
2019-03-04T00:26:35.490Z,7.42
2019-03-04T00:29:02.761Z,5.67
2019-03-04T00:31:30.069Z,6.47
2019-03-04T00:33:57.343Z,6.37
2019-03-04T00:36:24.635Z,6.45
2019-03-04T00:38:52.142Z,6.75
2019-03-04T00:41:19.427Z,6.70
2019-03-04T00:43:46.701Z,5.95
2019-03-04T00:46:14.002Z,5.45
2019-03-04T00:48:41.318Z,7.05
2019-03-04T00:51:08.611Z,5.28
2019-03-04T00:53:35.979Z,6.50
2019-03-04T00:56:03.291Z,6.25
2019-03-04T00:58:30.852Z,7.87
2019-03-04T01:00:58.122Z,6.92
2019-03-04T01:03:25.531Z,6.10
2019-03-04T01:05:52.861Z,6.70
2019-03-04T01:08:20.161Z,6.67
2019-03-04T01:10:47.528Z,6.25
2019-03-04T01:13:14.870Z,8.58
2019-03-04T01:15:42.626Z,5.58
2019-03-04T01:18:09.965Z,5.25
2019-03-04T01:20:37.242Z,7.12
2019-03-04T01:23:04.806Z,6.97
2019-03-04T01:25:32.080Z,6.58
2019-03-04T01:27:59.380Z,6.33
2019-03-04T01:30:27.149Z,5.90
2019-03-04T01:32:54.449Z,5.92
2019-03-04T01:35:21.858Z,6.37
2019-03-04T01:37:49.179Z,5.42
2019-03-04T01:40:17.837Z,6.47
2019-03-04T01:42:45.259Z,5.40
2019-03-04T01:45:13.618Z,5.65
2019-03-04T01:47:40.907Z,5.90
2019-03-04T01:50:11.939Z,7.03
2019-03-04T01:52:39.240Z,6.15
2019-03-04T01:55:07.749Z,7.03
2019-03-04T01:57:35.028Z,5.87
2019-03-04T02:00:02.314Z,6.70
2019-03-04T02:02:29.817Z,6.55
2019-03-04T02:04:57.402Z,5.80
2019-03-04T02:07:24.676Z,5.78
2019-03-04T02:09:52.029Z,5.12
2019-03-04T02:12:19.321Z,5.70
2019-03-04T02:14:46.702Z,6.45
2019-03-04T02:17:13.973Z,5.78
2019-03-04T02:19:41.253Z,5.78
2019-03-04T02:22:08.534Z,6.35
2019-03-04T02:24:35.817Z,5.03
2019-03-04T02:27:03.084Z,6.15
2019-03-04T02:29:30.362Z,5.67
2019-03-04T02:31:57.703Z,5.25
2019-03-04T02:34:25.073Z,6.33
2019-03-04T02:36:52.415Z,6.42
2019-03-04T02:39:19.700Z,7.22
2019-03-04T02:41:48.079Z,7.25
2019-03-04T02:44:15.418Z,5.65
2019-03-04T02:46:42.866Z,6.47
2019-03-04T02:49:10.199Z,5.92
2019-03-04T02:51:38.131Z,6.30
2019-03-04T02:54:05.400Z,5.55
2019-03-04T02:56:32.697Z,5.33
2019-03-04T02:58:59.977Z,5.53
2019-03-04T03:01:27.329Z,5.55
2019-03-04T03:03:54.665Z,6.05
2019-03-04T03:06:21.943Z,5.47
2019-03-04T03:08:49.248Z,7.10
2019-03-04T03:11:16.610Z,6.25
2019-03-04T03:13:43.886Z,5.05
2019-03-04T03:16:11.163Z,5.90
2019-03-04T03:18:38.469Z,4.47
2019-03-04T03:21:05.758Z,5.67
2019-03-04T03:23:33.043Z,5.22
2019-03-04T03:26:00.365Z,4.53
2019-03-04T03:28:27.732Z,4.87
2019-03-04T03:30:55.093Z,7.12
2019-03-04T03:33:22.435Z,5.47
2019-03-04T03:35:49.788Z,6.55
2019-03-04T03:38:17.097Z,6.45
2019-03-04T03:40:44.371Z,4.75
2019-03-04T03:43:11.663Z,5.25
2019-03-04T03:45:39.013Z,5.53
2019-03-04T03:48:06.563Z,6.15
2019-03-04T03:50:33.909Z,5.45
2019-03-04T03:53:01.189Z,6.03
2019-03-04T03:55:28.565Z,5.00
2019-03-04T03:57:55.935Z,6.28
2019-03-04T04:00:26.194Z,5.95
2019-03-04T04:02:53.479Z,5.22
2019-03-04T04:05:20.852Z,5.08
2019-03-04T04:07:48.135Z,5.03
2019-03-04T04:10:16.160Z,5.70
2019-03-04T04:12:43.512Z,6.00
2019-03-04T04:15:14.880Z,5.12
2019-03-04T04:17:42.225Z,6.05
2019-03-04T04:20:10.291Z,4.50
2019-03-04T04:22:37.559Z,4.20
2019-03-04T04:25:05.514Z,6.15
2019-03-04T04:27:32.898Z,6.00
2019-03-04T04:30:00.381Z,4.20
2019-03-04T04:32:27.896Z,4.95
2019-03-04T04:34:55.368Z,5.22
2019-03-04T04:37:22.737Z,7.75
2019-03-04T04:39:50.001Z,7.12
2019-03-04T04:42:17.311Z,4.37
2019-03-04T04:44:44.601Z,5.53
2019-03-04T04:47:11.964Z,5.37
2019-03-04T04:49:39.342Z,5.17
2019-03-04T04:52:06.628Z,6.78
2019-03-04T04:54:33.982Z,4.70
2019-03-04T04:57:01.252Z,4.28
2019-03-04T04:59:28.533Z,4.05
2019-03-04T05:01:55.801Z,6.95
2019-03-04T05:04:23.097Z,4.60
2019-03-04T05:06:50.444Z,5.28
2019-03-04T05:09:17.843Z,6.30
2019-03-04T05:11:45.188Z,4.53
2019-03-04T05:14:12.474Z,5.30
2019-03-04T05:16:39.844Z,8.83
2019-03-04T05:19:07.239Z,5.28
2019-03-04T05:21:34.530Z,6.50
2019-03-04T05:24:02.423Z,6.17
2019-03-04T05:26:29.763Z,8.90
2019-03-04T05:28:57.116Z,8.83
2019-03-04T05:31:24.394Z,7.12
2019-03-04T05:33:51.665Z,8.63
2019-03-04T05:36:18.954Z,10.25
2019-03-04T05:38:46.266Z,10.25
2019-03-04T05:41:13.544Z,11.65
2019-03-04T05:43:41.225Z,8.90
2019-03-04T05:46:08.668Z,11.00
2019-03-04T05:48:35.966Z,10.48
2019-03-04T05:51:03.316Z,13.58
2019-03-04T05:53:30.957Z,9.30
2019-03-04T05:55:58.307Z,8.55
2019-03-04T05:58:25.587Z,8.88
2019-03-04T06:01:12.442Z,13.93
2019-03-04T06:03:39.723Z,10.45
2019-03-04T06:06:07.003Z,11.50
2019-03-04T06:08:34.283Z,11.33
2019-03-04T06:11:01.605Z,9.35
2019-03-04T06:13:28.886Z,11.20
2019-03-04T06:15:56.906Z,19.82
2019-03-04T06:18:24.195Z,19.48
2019-03-04T06:20:51.478Z,12.45
2019-03-04T06:23:18.794Z,7.65
2019-03-04T06:25:46.072Z,7.72
2019-03-04T06:28:13.373Z,23.38
2019-03-04T06:30:40.665Z,12.73
2019-03-04T06:33:11.542Z,10.50
2019-03-04T06:35:38.858Z,16.17
2019-03-04T06:38:06.209Z,21.97
2019-03-04T06:40:33.504Z,12.68
2019-03-04T06:43:00.870Z,15.83
2019-03-04T06:45:28.179Z,24.02
2019-03-04T06:47:55.682Z,17.05
2019-03-04T06:50:41.354Z,19.70
2019-03-04T06:53:08.725Z,27.07
2019-03-04T06:55:37.557Z,32.65
2019-03-04T06:58:05.186Z,28.90
2019-03-04T07:00:34.118Z,31.00
2019-03-04T07:03:01.400Z,29.57
2019-03-04T07:05:30.226Z,25.08
2019-03-04T07:07:57.507Z,28.32
2019-03-04T07:10:25.466Z,23.42
2019-03-04T07:12:52.764Z,25.23
2019-03-04T07:15:20.177Z,25.12
2019-03-04T07:17:47.658Z,29.77
2019-03-04T07:20:16.489Z,25.95
2019-03-04T07:22:44.019Z,23.10
2019-03-04T07:25:11.424Z,20.55
2019-03-04T07:27:38.692Z,22.95
2019-03-04T07:30:07.523Z,15.30
2019-03-04T07:32:34.799Z,17.32
2019-03-04T07:35:02.152Z,20.82
2019-03-04T07:37:29.434Z,17.20
2019-03-04T07:39:56.716Z,20.08
2019-03-04T07:42:26.060Z,18.77
2019-03-04T07:44:53.378Z,13.62
2019-03-04T07:47:20.658Z,13.60
2019-03-04T07:49:49.145Z,19.32
2019-03-04T07:52:16.425Z,12.73
2019-03-04T07:54:43.741Z,12.43
2019-03-04T07:57:11.018Z,18.25
2019-03-04T07:59:38.979Z,13.60
2019-03-04T08:02:06.824Z,16.12
2019-03-04T08:04:34.407Z,12.85
2019-03-04T08:07:03.283Z,11.03
2019-03-04T08:09:32.128Z,17.77
2019-03-04T08:12:19.147Z,10.98
2019-03-04T08:14:47.232Z,15.55
2019-03-04T08:17:14.513Z,10.23
2019-03-04T08:19:41.822Z,14.73
2019-03-04T08:22:09.115Z,10.23
2019-03-04T08:24:36.948Z,11.90
2019-03-04T08:27:05.303Z,9.13
2019-03-04T08:29:32.573Z,7.95
2019-03-04T08:31:59.864Z,12.85
2019-03-04T08:34:31.055Z,8.28
2019-03-04T08:36:56.160Z,9.78
2019-03-04T08:39:23.466Z,10.50
2019-03-04T08:41:50.876Z,9.13
2019-03-04T08:44:18.188Z,10.65
2019-03-04T08:46:45.491Z,9.50
2019-03-04T08:49:12.775Z,8.25
2019-03-04T08:51:40.082Z,8.30
2019-03-04T08:54:07.362Z,10.85
2019-03-04T08:56:34.652Z,10.58
2019-03-04T08:59:02.016Z,18.20
2019-03-04T09:01:31.194Z,12.23
2019-03-04T09:03:58.388Z,9.65
2019-03-04T09:06:25.873Z,7.92
2019-03-04T09:08:53.134Z,10.95
2019-03-04T09:11:20.416Z,8.88
2019-03-04T09:13:47.699Z,12.80
2019-03-04T09:16:14.987Z,9.98
2019-03-04T09:18:42.340Z,11.33
2019-03-04T09:21:09.692Z,12.05
2019-03-04T09:23:37.011Z,8.08
2019-03-04T09:26:05.761Z,8.45
2019-03-04T09:28:33.051Z,8.70
2019-03-04T09:31:00.402Z,9.38
2019-03-04T09:33:27.688Z,12.05
2019-03-04T09:35:54.986Z,14.50
2019-03-04T09:38:22.311Z,13.20
2019-03-04T09:40:49.594Z,16.60
2019-03-04T09:43:16.885Z,17.17
2019-03-04T09:45:44.311Z,14.40
2019-03-04T09:48:12.130Z,17.10
2019-03-04T09:50:39.651Z,21.30
2019-03-04T09:53:06.996Z,20.97
2019-03-04T09:55:34.274Z,20.65
2019-03-04T09:58:01.557Z,12.18
2019-03-04T10:00:39.402Z,19.37
2019-03-04T10:03:08.213Z,11.73
2019-03-04T10:05:39.725Z,15.98
2019-03-04T10:08:08.578Z,11.45
2019-03-04T10:10:52.330Z,12.43
2019-03-04T10:13:30.217Z,16.90
2019-03-04T10:16:01.961Z,16.87
2019-03-04T10:18:30.795Z,20.57
2019-03-04T10:21:02.490Z,17.15
2019-03-04T10:23:40.168Z,18.10
2019-03-04T10:26:08.978Z,16.37
2019-03-04T10:28:37.805Z,18.10
2019-03-04T10:31:15.569Z,11.60
2019-03-04T10:33:44.386Z,12.50
2019-03-04T10:36:25.343Z,14.73
2019-03-04T10:38:54.179Z,15.83
2019-03-04T10:41:25.647Z,10.10
2019-03-04T10:44:00.210Z,8.50
2019-03-04T10:46:34.791Z,12.47
2019-03-04T10:49:02.074Z,9.70
2019-03-04T10:51:29.374Z,10.98
2019-03-04T10:53:56.739Z,10.63
2019-03-04T10:56:24.051Z,9.05
2019-03-04T10:58:51.341Z,9.98
2019-03-04T11:01:18.624Z,8.73
2019-03-04T11:03:46.115Z,6.72
2019-03-04T11:06:14.603Z,9.50
2019-03-04T11:08:41.969Z,6.40
2019-03-04T11:11:09.267Z,10.75
2019-03-04T11:13:36.615Z,8.00
2019-03-04T11:16:03.910Z,8.58
2019-03-04T11:18:31.239Z,6.50
2019-03-04T11:20:58.586Z,6.08
2019-03-04T11:23:27.032Z,5.25
2019-03-04T11:25:54.308Z,6.83
2019-03-04T11:28:21.660Z,5.35
2019-03-04T11:30:49.111Z,8.33
2019-03-04T11:33:16.418Z,4.45
2019-03-04T11:35:43.695Z,4.35
2019-03-04T11:38:27.534Z,8.98
2019-03-04T11:40:54.845Z,5.40
2019-03-04T11:43:22.144Z,5.55
2019-03-04T11:45:49.420Z,5.58
2019-03-04T11:48:16.731Z,5.85
2019-03-04T11:50:44.015Z,5.90
2019-03-04T11:53:11.299Z,4.45
2019-03-04T11:55:38.603Z,7.10
2019-03-04T11:58:05.956Z,6.40
2019-03-04T12:00:34.981Z,5.83
2019-03-04T12:03:02.350Z,5.33
2019-03-04T12:05:29.638Z,6.15
2019-03-04T12:07:57.018Z,5.62
2019-03-04T12:10:24.289Z,8.73
2019-03-04T12:12:51.571Z,5.97
2019-03-04T12:15:19.683Z,6.47
2019-03-04T12:17:47.034Z,6.03
2019-03-04T12:20:14.730Z,4.92
2019-03-04T12:22:42.032Z,4.17
2019-03-04T12:25:11.183Z,5.22
2019-03-04T12:27:38.574Z,5.05
2019-03-04T12:30:07.391Z,5.97
2019-03-04T12:32:34.662Z,4.80
2019-03-04T12:35:01.968Z,6.60
2019-03-04T12:37:29.321Z,6.37
2019-03-04T12:39:56.633Z,6.50
2019-03-04T12:42:23.987Z,5.05
2019-03-04T12:44:51.259Z,6.87
2019-03-04T12:47:18.799Z,6.17
2019-03-04T12:49:46.229Z,5.67
2019-03-04T12:52:13.586Z,4.47
2019-03-04T12:54:40.898Z,7.55
2019-03-04T12:57:08.187Z,6.70
2019-03-04T12:59:35.450Z,6.55
2019-03-04T13:02:02.758Z,4.25
2019-03-04T13:04:30.038Z,5.87
2019-03-04T13:06:57.315Z,5.55
2019-03-04T13:09:24.612Z,4.87
2019-03-04T13:11:51.976Z,3.87
2019-03-04T13:14:19.530Z,5.58
2019-03-04T13:16:46.839Z,4.25
2019-03-04T13:19:14.141Z,4.80
2019-03-04T13:21:41.423Z,8.55
2019-03-04T13:24:08.711Z,11.15
2019-03-04T13:26:36.018Z,8.90
2019-03-04T13:29:04.954Z,6.40
2019-03-04T13:31:32.435Z,6.33
2019-03-04T13:33:59.850Z,7.90
2019-03-04T13:36:27.192Z,5.50
2019-03-04T13:38:54.497Z,8.08
2019-03-04T13:41:21.767Z,6.25
2019-03-04T13:43:49.049Z,9.93
2019-03-04T13:46:16.327Z,8.68
2019-03-04T13:48:43.630Z,6.85
2019-03-04T13:51:10.972Z,6.80
2019-03-04T13:53:38.254Z,11.00
2019-03-04T13:56:05.545Z,8.63
2019-03-04T13:58:32.957Z,10.88
2019-03-04T14:01:00.482Z,9.80
2019-03-04T14:03:27.764Z,10.13
2019-03-04T14:05:55.204Z,11.15
2019-03-04T14:08:22.504Z,11.22
2019-03-04T14:10:49.789Z,12.03
2019-03-04T14:13:17.087Z,11.80
2019-03-04T14:15:48.384Z,11.10
2019-03-04T14:18:15.817Z,11.15
2019-03-04T14:20:43.113Z,11.05
2019-03-04T14:23:10.468Z,13.83
2019-03-04T14:25:37.940Z,13.40
2019-03-04T14:28:05.226Z,8.98
2019-03-04T14:30:32.649Z,8.80
2019-03-04T14:33:00.055Z,9.08
2019-03-04T14:35:27.329Z,7.33
2019-03-04T14:37:54.614Z,8.43
2019-03-04T14:40:23.979Z,8.33
2019-03-04T14:42:51.329Z,6.72
2019-03-04T14:45:19.671Z,5.33
2019-03-04T14:47:47.556Z,4.60
2019-03-04T14:50:17.956Z,7.37
2019-03-04T14:52:45.351Z,4.92
2019-03-04T14:55:16.844Z,5.50
2019-03-04T14:57:44.385Z,4.22
2019-03-04T15:00:15.980Z,5.40
2019-03-04T15:02:43.347Z,6.35
2019-03-04T15:05:10.759Z,4.72
2019-03-04T15:07:38.040Z,6.28
2019-03-04T15:10:07.176Z,4.78
2019-03-04T15:12:34.531Z,3.30
2019-03-04T15:15:01.974Z,5.50
2019-03-04T15:17:29.610Z,3.30
2019-03-04T15:19:56.953Z,7.83
2019-03-04T15:22:34.220Z,4.78
2019-03-04T15:24:53.333Z,6.72
2019-03-04T15:27:20.621Z,8.98
2019-03-04T15:29:47.898Z,7.62
2019-03-04T15:32:15.181Z,5.47
2019-03-04T15:34:42.464Z,4.90
2019-03-04T15:37:09.732Z,4.92
2019-03-04T15:39:37.048Z,6.00
2019-03-04T15:42:04.465Z,10.38
2019-03-04T15:44:31.791Z,4.30
2019-03-04T15:46:59.161Z,6.00
2019-03-04T15:49:26.514Z,6.30
2019-03-04T15:51:53.804Z,5.45
2019-03-04T15:54:21.192Z,6.40
2019-03-04T15:56:48.491Z,6.53
2019-03-04T15:59:15.839Z,4.08
2019-03-04T16:01:43.191Z,7.10
2019-03-04T16:04:10.471Z,5.08
2019-03-04T16:06:38.123Z,6.10
2019-03-04T16:09:07.056Z,3.75
2019-03-04T16:11:34.336Z,5.72
2019-03-04T16:14:01.604Z,8.93
2019-03-04T16:16:28.914Z,12.53
2019-03-04T16:18:56.199Z,8.03
2019-03-04T16:21:23.497Z,10.40
2019-03-04T16:23:50.852Z,7.75
2019-03-04T16:26:18.128Z,6.50
2019-03-04T16:28:45.424Z,8.03
2019-03-04T16:31:12.701Z,10.72
2019-03-04T16:33:40.030Z,10.35
2019-03-04T16:36:07.574Z,7.60
2019-03-04T16:38:34.856Z,7.08
2019-03-04T16:41:02.249Z,8.05
2019-03-04T16:43:29.596Z,11.60
2019-03-04T16:45:56.897Z,8.28
2019-03-04T16:48:24.182Z,19.32
2019-03-04T16:50:51.476Z,12.43
2019-03-04T16:53:20.297Z,6.90
2019-03-04T16:55:47.575Z,13.58
2019-03-04T16:58:14.867Z,13.85
2019-03-04T17:00:42.223Z,11.28
2019-03-04T17:03:09.579Z,14.53
2019-03-04T17:05:36.864Z,8.13
2019-03-04T17:08:04.295Z,15.28
2019-03-04T17:10:31.827Z,9.05
2019-03-04T17:12:59.128Z,8.95
2019-03-04T17:15:26.405Z,15.90
2019-03-04T17:17:53.728Z,7.42
2019-03-04T17:20:21.138Z,5.92
2019-03-04T17:22:48.527Z,9.13
2019-03-04T17:25:19.923Z,9.18
2019-03-04T17:27:47.653Z,10.35
2019-03-04T17:30:18.738Z,6.58
2019-03-04T17:32:46.021Z,7.92
2019-03-04T17:35:14.882Z,7.40
2019-03-04T17:37:42.257Z,8.53
2019-03-04T17:40:11.029Z,7.55
2019-03-04T17:42:38.378Z,8.05
2019-03-04T17:45:07.550Z,7.95
2019-03-04T17:47:34.827Z,8.68
2019-03-04T17:50:02.093Z,8.93
2019-03-04T17:52:29.423Z,7.55
2019-03-04T17:54:56.698Z,5.75
2019-03-04T17:57:23.985Z,7.75
2019-03-04T17:59:51.261Z,5.78
2019-03-04T18:02:18.575Z,6.28
2019-03-04T18:04:45.854Z,8.28
2019-03-04T18:07:13.168Z,7.62
2019-03-04T18:09:40.452Z,8.10
2019-03-04T18:12:07.780Z,10.08
2019-03-04T18:14:35.055Z,8.70
2019-03-04T18:17:02.385Z,6.10
2019-03-04T18:19:29.672Z,10.60
2019-03-04T18:21:57.577Z,9.15
2019-03-04T18:24:24.935Z,11.12
2019-03-04T18:26:52.795Z,13.05
2019-03-04T18:29:36.858Z,13.25
2019-03-04T18:32:14.449Z,10.63
2019-03-04T18:34:46.173Z,10.95
2019-03-04T18:37:17.943Z,10.98
2019-03-04T18:39:46.771Z,41.68
2019-03-04T18:42:18.460Z,47.73
2019-03-04T18:44:47.287Z,39.78
2019-03-04T18:47:25.300Z,40.80
2019-03-04T18:49:52.601Z,39.92
2019-03-04T18:52:20.300Z,33.98
2019-03-04T18:54:47.616Z,34.85
2019-03-04T18:57:14.913Z,28.52
2019-03-04T18:59:42.185Z,29.05
2019-03-04T19:02:09.557Z,31.48
2019-03-04T19:04:36.932Z,53.60
2019-03-04T19:07:04.577Z,49.03
2019-03-04T19:09:31.872Z,31.82
2019-03-04T19:11:59.253Z,43.98
2019-03-04T19:14:26.547Z,37.30
2019-03-04T19:16:53.826Z,30.97
2019-03-04T19:19:21.128Z,34.85
2019-03-04T19:21:48.425Z,33.80
2019-03-04T19:24:15.790Z,29.30
2019-03-04T19:26:43.076Z,22.37
2019-03-04T19:29:10.910Z,23.40
2019-03-04T19:31:38.248Z,26.00
2019-03-04T19:34:05.538Z,19.98
2019-03-04T19:36:32.861Z,21.97
2019-03-04T19:39:00.216Z,20.08
2019-03-04T19:41:27.552Z,24.67
2019-03-04T19:43:54.897Z,22.37
2019-03-04T19:46:22.178Z,18.35
2019-03-04T19:48:49.473Z,19.32
2019-03-04T19:51:16.826Z,14.35
2019-03-04T19:53:44.190Z,15.08
2019-03-04T19:56:11.544Z,17.60
2019-03-04T19:58:38.829Z,14.13
2019-03-04T20:01:06.665Z,16.62
2019-03-04T20:03:33.975Z,21.65
2019-03-04T20:06:02.329Z,15.32
2019-03-04T20:08:29.634Z,16.15
2019-03-04T20:10:57.041Z,18.12
2019-03-04T20:13:24.531Z,14.68
2019-03-04T20:15:51.964Z,16.45
2019-03-04T20:18:19.465Z,13.95
2019-03-04T20:20:46.841Z,13.68
2019-03-04T20:23:14.106Z,13.90
2019-03-04T20:25:41.398Z,15.60
2019-03-04T20:28:11.810Z,12.07
2019-03-04T20:30:39.794Z,15.23
2019-03-04T20:33:07.111Z,14.55
2019-03-04T20:35:34.403Z,22.37
2019-03-04T20:38:03.051Z,17.50
2019-03-04T20:40:30.335Z,15.85
2019-03-04T20:42:57.995Z,15.70
2019-03-04T20:45:25.343Z,15.03
2019-03-04T20:47:52.770Z,14.15
2019-03-04T20:50:21.646Z,14.18
2019-03-04T20:52:49.073Z,16.32
2019-03-04T20:55:16.421Z,18.80
2019-03-04T20:57:44.075Z,18.95
2019-03-04T21:00:13.009Z,24.25
2019-03-04T21:02:40.302Z,26.73
2019-03-04T21:05:09.235Z,21.15
2019-03-04T21:07:36.784Z,32.20
2019-03-04T21:10:05.835Z,24.80
2019-03-04T21:12:34.547Z,22.48
2019-03-04T21:15:01.903Z,21.10
2019-03-04T21:17:29.189Z,45.90
2019-03-04T21:19:56.691Z,36.65
2019-03-04T21:22:24.132Z,53.63
2019-03-04T21:24:51.708Z,37.83
2019-03-04T21:27:19.431Z,45.15
2019-03-04T21:29:48.289Z,34.50
2019-03-04T21:32:19.774Z,37.15
2019-03-04T21:35:05.460Z,45.85
2019-03-04T21:37:34.354Z,47.23
2019-03-04T21:40:11.929Z,34.92
2019-03-04T21:42:46.463Z,35.03
2019-03-04T21:45:17.061Z,32.85
2019-03-04T21:48:00.948Z,29.92
2019-03-04T21:50:38.823Z,32.03
2019-03-04T21:53:07.669Z,32.50
2019-03-04T21:55:42.495Z,27.82
2019-03-04T21:58:09.850Z,27.58
2019-03-04T22:00:39.035Z,25.50
2019-03-04T22:03:10.954Z,24.43
2019-03-04T22:05:38.360Z,24.92
2019-03-04T22:08:05.917Z,24.67
2019-03-04T22:10:33.211Z,26.87
2019-03-04T22:13:00.739Z,22.42
2019-03-04T22:15:28.097Z,23.83
2019-03-04T22:17:55.396Z,22.35
2019-03-04T22:20:22.704Z,18.48
2019-03-04T22:22:50.961Z,23.52
2019-03-04T22:25:18.298Z,19.27
2019-03-04T22:27:45.635Z,20.95
2019-03-04T22:30:19.457Z,22.93
2019-03-04T22:32:47.506Z,20.85
2019-03-04T22:35:17.226Z,20.05
2019-03-04T22:37:44.621Z,19.30
2019-03-04T22:40:19.696Z,18.57
2019-03-04T22:42:47.101Z,16.95
2019-03-04T22:45:15.578Z,16.17
2019-03-04T22:47:43.341Z,16.85
2019-03-04T22:50:11.978Z,16.50
2019-03-04T22:52:39.407Z,14.38
2019-03-04T22:55:08.340Z,14.05
2019-03-04T22:57:35.734Z,15.13
2019-03-04T23:00:04.629Z,11.78
2019-03-04T23:02:31.998Z,14.25
2019-03-04T23:04:59.548Z,12.43
2019-03-04T23:07:26.838Z,11.33
2019-03-04T23:09:55.654Z,14.63
2019-03-04T23:12:27.221Z,13.10
2019-03-04T23:14:54.867Z,10.65
2019-03-04T23:17:22.160Z,13.62
2019-03-04T23:19:49.516Z,12.37
2019-03-04T23:22:17.307Z,12.30
2019-03-04T23:24:44.585Z,9.88
2019-03-04T23:27:11.876Z,10.72
2019-03-04T23:29:39.245Z,10.10
2019-03-04T23:32:06.532Z,13.22
2019-03-04T23:34:33.946Z,12.20
2019-03-04T23:37:01.238Z,10.50
2019-03-04T23:39:28.515Z,9.38
2019-03-04T23:41:55.789Z,8.25
2019-03-04T23:44:23.122Z,8.45
2019-03-04T23:46:50.410Z,9.93
2019-03-04T23:49:17.846Z,9.15
2019-03-04T23:51:45.123Z,9.33
2019-03-04T23:54:12.500Z,12.58
2019-03-04T23:56:39.795Z,10.88
2019-03-04T23:59:07.083Z,8.15
